createdAt,value
2023-05-07T00:00:23.849Z,16.60
2023-05-07T00:02:53.259Z,16.60
2023-05-07T00:05:21.357Z,16.50
2023-05-07T00:07:49.096Z,16.50
2023-05-07T00:10:16.898Z,16.50
2023-05-07T00:12:44.694Z,16.50
2023-05-07T00:15:12.645Z,16.40
2023-05-07T00:17:40.673Z,16.40
2023-05-07T00:20:10.569Z,16.40
2023-05-07T00:22:38.667Z,16.40
2023-05-07T00:25:07.072Z,16.40
2023-05-07T00:27:34.793Z,16.30
2023-05-07T00:30:02.563Z,16.30
2023-05-07T00:32:30.360Z,16.20
2023-05-07T00:34:58.172Z,16.20
2023-05-07T00:37:27.288Z,16.20
2023-05-07T00:39:54.996Z,16.20
2023-05-07T00:42:22.725Z,16.20
2023-05-07T00:44:50.582Z,16.20
2023-05-07T00:47:18.842Z,16.10
2023-05-07T00:49:47.333Z,16.10
2023-05-07T00:52:15.926Z,16.10
2023-05-07T00:54:45.064Z,16.10
2023-05-07T00:57:13.120Z,16.00
2023-05-07T00:59:41.699Z,16.00
2023-05-07T01:02:09.383Z,16.00
2023-05-07T01:04:37.660Z,16.00
2023-05-07T01:07:06.634Z,15.90
2023-05-07T01:09:36.308Z,15.90
2023-05-07T01:12:06.354Z,15.90
2023-05-07T01:14:34.665Z,15.90
2023-05-07T01:17:02.730Z,15.90
2023-05-07T01:19:31.276Z,15.90
2023-05-07T01:22:03.335Z,15.90
2023-05-07T01:24:32.659Z,15.90
2023-05-07T01:27:00.389Z,15.80
2023-05-07T01:29:28.090Z,15.80
2023-05-07T01:31:56.626Z,15.80
2023-05-07T01:34:24.678Z,15.80
2023-05-07T01:36:52.841Z,15.80
2023-05-07T01:39:20.721Z,15.80
2023-05-07T01:41:49.800Z,15.70
2023-05-07T01:44:18.616Z,15.70
2023-05-07T01:46:46.654Z,15.70
2023-05-07T01:49:14.376Z,15.70
2023-05-07T01:51:42.066Z,15.70
2023-05-07T01:54:09.804Z,15.60
2023-05-07T01:56:37.519Z,15.60
2023-05-07T01:59:06.554Z,15.50
2023-05-07T02:01:34.310Z,15.50
2023-05-07T02:04:02.157Z,15.40
2023-05-07T02:06:29.868Z,15.40
2023-05-07T02:08:57.543Z,15.40
2023-05-07T02:11:26.301Z,15.40
2023-05-07T02:13:54.066Z,15.40
2023-05-07T02:16:24.140Z,15.40
2023-05-07T02:18:52.069Z,15.40
2023-05-07T02:21:19.798Z,15.40
2023-05-07T02:23:47.515Z,15.40
2023-05-07T02:26:15.244Z,15.30
2023-05-07T02:28:42.978Z,15.30
2023-05-07T02:31:10.675Z,15.30
2023-05-07T02:33:39.730Z,15.30
2023-05-07T02:36:07.944Z,15.20
2023-05-07T02:38:35.863Z,15.10
2023-05-07T02:41:03.716Z,15.10
2023-05-07T02:43:31.429Z,15.10
2023-05-07T02:46:02.785Z,15.10
2023-05-07T02:48:30.733Z,15.00
2023-05-07T02:50:59.933Z,15.10
2023-05-07T02:53:27.674Z,15.10
2023-05-07T02:55:55.604Z,15.00
2023-05-07T02:58:23.322Z,15.00
2023-05-07T03:00:51.229Z,15.00
2023-05-07T03:03:18.905Z,15.00
2023-05-07T03:05:46.636Z,14.90
2023-05-07T03:08:15.835Z,14.90
2023-05-07T03:10:43.593Z,14.90
2023-05-07T03:13:11.541Z,14.90
2023-05-07T03:15:39.361Z,14.80
2023-05-07T03:18:07.282Z,14.80
2023-05-07T03:20:35.196Z,14.70
2023-05-07T03:23:02.928Z,14.70
2023-05-07T03:25:32.138Z,14.60
2023-05-07T03:28:00.045Z,14.60
2023-05-07T03:30:27.804Z,14.60
2023-05-07T03:32:55.550Z,14.60
2023-05-07T03:35:23.324Z,14.60
2023-05-07T03:37:51.657Z,14.50
2023-05-07T03:40:19.614Z,14.50
2023-05-07T03:42:48.636Z,14.50
2023-05-07T03:45:16.448Z,14.40
2023-05-07T03:47:44.321Z,14.50
2023-05-07T03:50:12.591Z,14.50
2023-05-07T03:52:40.608Z,14.50
2023-05-07T03:55:08.737Z,14.50
2023-05-07T03:57:36.471Z,14.50
2023-05-07T04:00:07.476Z,14.40
2023-05-07T04:02:35.426Z,14.40
2023-05-07T04:05:03.118Z,14.30
2023-05-07T04:07:30.853Z,14.30
2023-05-07T04:09:58.794Z,14.30
2023-05-07T04:12:26.604Z,14.30
2023-05-07T04:14:54.340Z,14.30
2023-05-07T04:17:23.399Z,14.30
2023-05-07T04:19:51.120Z,14.30
2023-05-07T04:22:18.840Z,14.30
2023-05-07T04:24:46.621Z,14.30
2023-05-07T04:27:14.325Z,14.30
2023-05-07T04:29:43.366Z,14.20
2023-05-07T04:32:11.363Z,14.20
2023-05-07T04:34:40.524Z,14.30
2023-05-07T04:37:08.278Z,14.30
2023-05-07T04:39:36.302Z,14.30
2023-05-07T04:42:04.173Z,14.30
2023-05-07T04:44:32.088Z,14.30
2023-05-07T04:46:59.752Z,14.30
2023-05-07T04:49:27.470Z,14.30
2023-05-07T04:51:56.507Z,14.30
2023-05-07T04:54:26.175Z,14.40
2023-05-07T04:56:53.971Z,14.30
2023-05-07T04:59:21.702Z,14.40
2023-05-07T05:01:49.562Z,14.40
2023-05-07T05:04:17.300Z,14.40
2023-05-07T05:06:45.265Z,14.40
2023-05-07T05:09:15.293Z,14.40
2023-05-07T05:11:42.989Z,14.40
2023-05-07T05:14:10.792Z,14.50
2023-05-07T05:16:38.728Z,14.50
2023-05-07T05:19:06.451Z,14.50
2023-05-07T05:21:34.222Z,14.50
2023-05-07T05:24:01.967Z,14.50
2023-05-07T05:26:31.024Z,14.50
2023-05-07T05:28:58.703Z,14.50
2023-05-07T05:31:26.488Z,14.50
2023-05-07T05:33:54.336Z,14.60
2023-05-07T05:36:22.084Z,14.60
2023-05-07T05:38:49.802Z,14.60
2023-05-07T05:41:17.533Z,14.60
2023-05-07T05:43:46.657Z,14.60
2023-05-07T05:46:14.398Z,14.70
2023-05-07T05:48:42.166Z,14.80
2023-05-07T05:51:09.910Z,14.80
2023-05-07T05:53:37.945Z,14.90
2023-05-07T05:56:05.960Z,14.90
2023-05-07T05:58:33.802Z,15.00
2023-05-07T06:01:03.684Z,15.00
2023-05-07T06:03:31.493Z,15.10
2023-05-07T06:05:59.283Z,15.10
2023-05-07T06:08:27.008Z,15.20
2023-05-07T06:10:54.777Z,15.30
2023-05-07T06:13:22.619Z,15.30
2023-05-07T06:15:50.984Z,15.40
2023-05-07T06:18:20.100Z,15.50
2023-05-07T06:20:47.746Z,15.60
2023-05-07T06:23:17.790Z,15.70
2023-05-07T06:25:48.139Z,15.80
2023-05-07T06:28:15.883Z,15.90
2023-05-07T06:30:43.593Z,16.00
2023-05-07T06:33:11.322Z,16.10
2023-05-07T06:35:40.453Z,16.20
2023-05-07T06:38:08.214Z,16.20
2023-05-07T06:40:35.929Z,16.20
2023-05-07T06:43:03.667Z,16.30
2023-05-07T06:45:31.395Z,16.30
2023-05-07T06:47:59.160Z,16.40
2023-05-07T06:50:26.886Z,16.40
2023-05-07T06:52:56.001Z,16.50
2023-05-07T06:55:23.754Z,16.60
2023-05-07T06:57:51.520Z,16.70
2023-05-07T07:00:19.672Z,16.80
2023-05-07T07:02:47.641Z,16.90
2023-05-07T07:05:15.387Z,17.00
2023-05-07T07:07:43.146Z,17.10
2023-05-07T07:10:12.802Z,17.30
2023-05-07T07:12:40.714Z,17.40
2023-05-07T07:15:08.956Z,17.50
2023-05-07T07:17:36.665Z,17.70
2023-05-07T07:20:19.332Z,17.80
2023-05-07T07:22:47.048Z,18.00
2023-05-07T07:25:16.081Z,18.10
2023-05-07T07:27:50.485Z,18.30
2023-05-07T07:30:18.282Z,18.40
2023-05-07T07:32:46.027Z,18.60
2023-05-07T07:35:13.783Z,18.70
2023-05-07T07:37:41.552Z,18.80
2023-05-07T07:40:10.466Z,19.00
2023-05-07T07:42:39.862Z,19.10
2023-05-07T07:45:08.314Z,19.30
2023-05-07T07:47:36.107Z,19.40
2023-05-07T07:50:03.830Z,19.50
2023-05-07T07:52:31.539Z,19.70
2023-05-07T07:54:59.228Z,19.80
2023-05-07T07:57:26.957Z,20.00
2023-05-07T07:59:56.274Z,20.10
2023-05-07T08:02:24.221Z,20.20
2023-05-07T08:04:52.045Z,20.40
2023-05-07T08:07:21.605Z,20.70
2023-05-07T08:09:49.375Z,20.80
2023-05-07T08:12:17.173Z,21.00
2023-05-07T08:14:44.932Z,21.20
2023-05-07T08:17:16.839Z,21.30
2023-05-07T08:19:44.699Z,21.50
2023-05-07T08:22:12.935Z,21.50
2023-05-07T08:24:40.632Z,21.70
2023-05-07T08:27:08.373Z,21.80
2023-05-07T08:29:36.577Z,21.90
2023-05-07T08:32:04.422Z,22.00
2023-05-07T08:34:33.512Z,22.10
2023-05-07T08:37:01.289Z,22.20
2023-05-07T08:39:29.042Z,22.30
2023-05-07T08:41:57.715Z,22.40
2023-05-07T08:44:28.130Z,22.30
2023-05-07T08:46:57.549Z,22.40
2023-05-07T08:49:25.262Z,22.40
2023-05-07T08:51:54.339Z,22.50
2023-05-07T08:54:22.709Z,22.50
2023-05-07T08:56:50.860Z,22.60
2023-05-07T08:59:18.610Z,22.60
2023-05-07T09:01:46.601Z,22.70
2023-05-07T09:04:14.701Z,22.80
2023-05-07T09:06:43.047Z,22.80
2023-05-07T09:09:16.261Z,22.90
2023-05-07T09:11:43.973Z,22.90
2023-05-07T09:14:11.667Z,22.80
2023-05-07T09:16:39.974Z,22.70
2023-05-07T09:19:07.830Z,22.70
2023-05-07T09:21:35.556Z,22.70
2023-05-07T09:24:03.309Z,22.70
2023-05-07T09:26:34.066Z,22.80
2023-05-07T09:29:02.069Z,22.90
2023-05-07T09:31:29.770Z,23.00
2023-05-07T09:33:57.747Z,23.10
2023-05-07T09:36:25.536Z,23.20
2023-05-07T09:38:53.339Z,23.30
2023-05-07T09:41:21.955Z,23.40
2023-05-07T09:43:55.383Z,23.50
2023-05-07T09:46:25.417Z,23.70
2023-05-07T09:48:54.681Z,23.70
2023-05-07T09:51:24.463Z,23.80
2023-05-07T09:53:52.616Z,23.90
2023-05-07T09:56:22.188Z,23.90
2023-05-07T09:58:52.500Z,24.00
2023-05-07T10:01:23.065Z,24.00
2023-05-07T10:03:52.137Z,24.10
2023-05-07T10:06:20.446Z,24.10
2023-05-07T10:08:48.647Z,24.20
2023-05-07T10:11:16.850Z,24.30
2023-05-07T10:13:44.896Z,24.40
2023-05-07T10:16:14.193Z,24.50
2023-05-07T10:18:42.717Z,24.50
2023-05-07T10:21:12.916Z,24.50
2023-05-07T10:23:40.725Z,24.50
2023-05-07T10:26:10.414Z,24.50
2023-05-07T10:28:41.642Z,24.50
2023-05-07T10:31:24.277Z,24.40
2023-05-07T10:33:55.025Z,24.40
2023-05-07T10:36:23.640Z,24.30
2023-05-07T10:38:51.998Z,24.40
2023-05-07T10:41:19.862Z,24.40
2023-05-07T10:43:47.954Z,24.50
2023-05-07T10:46:18.153Z,24.50
2023-05-07T10:49:06.207Z,24.50
2023-05-07T10:51:35.574Z,24.40
2023-05-07T10:54:22.528Z,24.30
2023-05-07T10:56:51.584Z,24.20
2023-05-07T10:59:46.443Z,24.10
2023-05-07T11:02:16.165Z,24.10
2023-05-07T11:04:44.029Z,24.00
2023-05-07T11:07:23.279Z,23.90
2023-05-07T11:10:05.533Z,23.90
2023-05-07T11:12:49.552Z,23.80
2023-05-07T11:15:17.646Z,23.80
2023-05-07T11:17:55.207Z,23.80
2023-05-07T11:20:23.067Z,23.80
2023-05-07T11:22:55.495Z,23.80
2023-05-07T11:25:24.314Z,23.80
2023-05-07T11:27:52.121Z,23.80
2023-05-07T11:30:20.420Z,23.80
2023-05-07T11:32:50.008Z,23.80
2023-05-07T11:35:18.218Z,23.80
2023-05-07T11:37:46.475Z,23.80
2023-05-07T11:40:15.961Z,23.80
2023-05-07T11:42:44.106Z,23.80
2023-05-07T11:45:12.386Z,23.80
2023-05-07T11:47:40.454Z,23.80
2023-05-07T11:50:09.477Z,23.80
2023-05-07T11:52:37.502Z,23.70
2023-05-07T11:55:05.928Z,23.80
2023-05-07T11:57:35.660Z,23.80
2023-05-07T12:00:05.421Z,23.80
2023-05-07T12:02:36.127Z,23.80
2023-05-07T12:05:04.541Z,23.80
2023-05-07T12:07:32.813Z,23.80
2023-05-07T12:10:00.499Z,23.80
2023-05-07T12:12:28.704Z,23.80
2023-05-07T12:14:57.718Z,23.80
2023-05-07T12:17:25.560Z,23.70
2023-05-07T12:19:54.673Z,23.70
2023-05-07T12:22:22.578Z,23.70
2023-05-07T12:24:51.355Z,23.60
2023-05-07T12:27:19.311Z,23.60
2023-05-07T12:29:47.388Z,23.50
2023-05-07T12:32:17.587Z,23.40
2023-05-07T12:34:45.863Z,23.40
2023-05-07T12:37:14.633Z,23.30
2023-05-07T12:39:46.312Z,23.30
2023-05-07T12:42:17.078Z,23.20
2023-05-07T12:44:47.326Z,23.20
2023-05-07T12:47:15.057Z,23.10
2023-05-07T12:49:44.149Z,23.10
2023-05-07T12:52:13.159Z,23.10
2023-05-07T12:54:41.109Z,23.10
2023-05-07T12:57:09.558Z,23.10
2023-05-07T12:59:38.304Z,23.10
2023-05-07T13:02:06.303Z,23.00
2023-05-07T13:04:34.515Z,23.00
2023-05-07T13:07:03.733Z,22.90
2023-05-07T13:09:31.427Z,22.90
2023-05-07T13:12:01.073Z,22.80
2023-05-07T13:14:28.894Z,22.80
2023-05-07T13:16:56.597Z,22.80
2023-05-07T13:19:24.366Z,22.70
2023-05-07T13:21:52.080Z,22.60
2023-05-07T13:24:21.143Z,22.50
2023-05-07T13:26:48.869Z,22.40
2023-05-07T13:29:16.678Z,22.40
2023-05-07T13:31:45.173Z,22.30
2023-05-07T13:34:12.967Z,22.30
2023-05-07T13:36:42.932Z,22.20
2023-05-07T13:39:10.659Z,22.10
2023-05-07T13:41:39.742Z,22.00
2023-05-07T13:44:07.746Z,22.00
2023-05-07T13:46:35.608Z,22.00
2023-05-07T13:49:03.506Z,21.90
2023-05-07T13:51:31.236Z,21.80
2023-05-07T13:53:59.448Z,21.70
2023-05-07T13:56:29.486Z,21.70
2023-05-07T13:59:00.603Z,21.60
2023-05-07T14:01:29.222Z,21.50
2023-05-07T14:03:57.622Z,21.50
2023-05-07T14:06:25.555Z,21.40
2023-05-07T14:08:53.435Z,21.30
2023-05-07T14:11:21.797Z,21.30
2023-05-07T14:13:49.523Z,21.20
2023-05-07T14:16:18.635Z,21.20
2023-05-07T14:18:46.429Z,21.20
2023-05-07T14:21:15.030Z,21.20
2023-05-07T14:23:42.825Z,21.20
2023-05-07T14:26:10.585Z,21.20
2023-05-07T14:28:40.477Z,21.20
2023-05-07T14:31:08.440Z,21.20
2023-05-07T14:33:38.690Z,21.20
2023-05-07T14:36:07.999Z,21.20
2023-05-07T14:38:35.735Z,21.10
2023-05-07T14:41:03.474Z,21.10
2023-05-07T14:43:31.247Z,21.00
2023-05-07T14:45:58.978Z,21.00
2023-05-07T14:48:26.695Z,20.90
2023-05-07T14:50:55.899Z,20.80
2023-05-07T14:53:23.811Z,20.70
2023-05-07T14:55:51.553Z,20.60
2023-05-07T14:58:19.322Z,20.50
2023-05-07T15:00:47.104Z,20.40
2023-05-07T15:03:14.900Z,20.30
2023-05-07T15:05:42.694Z,20.30
2023-05-07T15:08:11.846Z,20.20
2023-05-07T15:10:42.145Z,20.20
2023-05-07T15:13:13.442Z,20.20
2023-05-07T15:15:43.958Z,20.20
2023-05-07T15:18:11.726Z,20.20
2023-05-07T15:20:39.488Z,20.20
2023-05-07T15:23:10.537Z,20.10
2023-05-07T15:25:39.711Z,20.10
2023-05-07T15:28:07.831Z,20.10
2023-05-07T15:30:35.544Z,20.10
2023-05-07T15:33:03.533Z,20.00
2023-05-07T15:35:31.422Z,20.00
2023-05-07T15:37:59.519Z,20.00
2023-05-07T15:40:27.229Z,20.00
2023-05-07T15:42:57.862Z,20.00
2023-05-07T15:45:25.830Z,20.00
2023-05-07T15:47:53.705Z,19.90
2023-05-07T15:50:21.673Z,20.00
2023-05-07T15:52:49.451Z,20.00
2023-05-07T15:55:17.218Z,20.00
2023-05-07T15:57:45.004Z,19.90
2023-05-07T16:00:16.902Z,19.90
2023-05-07T16:02:44.695Z,19.90
2023-05-07T16:05:13.682Z,19.80
2023-05-07T16:07:44.086Z,19.70
2023-05-07T16:10:12.481Z,19.60
2023-05-07T16:12:40.223Z,19.60
2023-05-07T16:15:08.499Z,19.50
2023-05-07T16:17:38.026Z,19.40
2023-05-07T16:20:08.707Z,19.30
2023-05-07T16:22:37.031Z,19.30
2023-05-07T16:25:05.267Z,19.30
2023-05-07T16:27:33.058Z,19.30
2023-05-07T16:30:00.857Z,19.30
2023-05-07T16:32:29.965Z,19.20
2023-05-07T16:34:59.194Z,19.20
2023-05-07T16:37:27.028Z,19.10
2023-05-07T16:39:56.418Z,19.10
2023-05-07T16:42:24.160Z,19.00
2023-05-07T16:44:52.066Z,19.00
2023-05-07T16:47:19.826Z,19.00
2023-05-07T16:49:47.572Z,19.00
2023-05-07T16:52:16.610Z,18.90
2023-05-07T16:54:44.306Z,19.00
2023-05-07T16:57:12.049Z,19.00
2023-05-07T16:59:39.903Z,19.00
2023-05-07T17:02:07.900Z,19.00
2023-05-07T17:04:35.633Z,19.10
2023-05-07T17:07:03.357Z,19.00
2023-05-07T17:09:32.410Z,19.00
2023-05-07T17:12:00.182Z,19.00
2023-05-07T17:14:28.156Z,18.90
2023-05-07T17:16:55.918Z,18.90
2023-05-07T17:19:23.755Z,18.80
2023-05-07T17:21:51.501Z,18.80
2023-05-07T17:24:19.215Z,18.80
2023-05-07T17:26:49.802Z,18.70
2023-05-07T17:29:17.746Z,18.70
2023-05-07T17:31:45.667Z,18.80
2023-05-07T17:34:13.427Z,18.80
2023-05-07T17:36:41.166Z,18.80
2023-05-07T17:39:09.055Z,18.80
2023-05-07T17:41:37.158Z,18.80
2023-05-07T17:44:06.341Z,18.80
2023-05-07T17:46:34.209Z,18.80
2023-05-07T17:49:02.032Z,18.80
2023-05-07T17:51:33.826Z,18.80
2023-05-07T17:54:10.405Z,18.90
2023-05-07T17:56:38.655Z,18.80
2023-05-07T17:59:07.787Z,18.80
2023-05-07T18:01:35.523Z,18.80
2023-05-07T18:04:03.660Z,18.70
2023-05-07T18:06:32.092Z,18.50
2023-05-07T18:09:00.405Z,18.50
2023-05-07T18:11:29.181Z,18.40
2023-05-07T18:13:56.879Z,18.30
2023-05-07T18:16:26.023Z,18.30
2023-05-07T18:18:53.733Z,18.30
2023-05-07T18:21:21.591Z,18.20
2023-05-07T18:23:49.832Z,18.20
2023-05-07T18:26:17.890Z,18.10
2023-05-07T18:28:46.045Z,18.10
2023-05-07T18:31:13.930Z,18.10
2023-05-07T18:33:43.006Z,18.00
2023-05-07T18:36:10.826Z,18.00
2023-05-07T18:38:38.918Z,18.00
2023-05-07T18:41:07.040Z,18.00
2023-05-07T18:43:34.846Z,18.10
2023-05-07T18:46:02.632Z,18.00
2023-05-07T18:48:30.423Z,18.00
2023-05-07T18:50:59.453Z,18.00
2023-05-07T18:53:27.196Z,18.00
2023-05-07T18:55:54.860Z,18.00
2023-05-07T18:58:22.582Z,18.00
2023-05-07T19:00:50.772Z,18.00
2023-05-07T19:03:18.574Z,18.00
2023-05-07T19:05:46.630Z,18.00
2023-05-07T19:08:15.742Z,18.00
2023-05-07T19:10:43.483Z,18.00
2023-05-07T19:13:11.302Z,18.00
2023-05-07T19:15:39.168Z,18.00
2023-05-07T19:18:06.997Z,18.00
2023-05-07T19:20:34.750Z,18.00
2023-05-07T19:23:03.179Z,17.90
2023-05-07T19:25:32.247Z,17.80
2023-05-07T19:27:59.906Z,17.80
2023-05-07T19:30:27.648Z,17.70
2023-05-07T19:32:55.401Z,17.80
2023-05-07T19:35:23.137Z,17.70
2023-05-07T19:37:51.024Z,17.70
2023-05-07T19:40:18.882Z,17.70
2023-05-07T19:42:47.958Z,17.70
2023-05-07T19:45:16.175Z,17.60
2023-05-07T19:47:43.959Z,17.50
2023-05-07T19:50:12.146Z,17.50
2023-05-07T19:52:39.848Z,17.50
2023-05-07T19:55:08.536Z,17.50
2023-05-07T19:57:36.257Z,17.50
2023-05-07T20:00:06.597Z,17.50
2023-05-07T20:02:34.447Z,17.50
2023-05-07T20:05:02.270Z,17.60
2023-05-07T20:07:30.028Z,17.60
2023-05-07T20:09:57.771Z,17.50
2023-05-07T20:12:25.864Z,17.50
2023-05-07T20:14:53.606Z,17.50
2023-05-07T20:17:22.761Z,17.50
2023-05-07T20:19:50.575Z,17.40
2023-05-07T20:22:18.253Z,17.50
2023-05-07T20:24:45.994Z,17.50
2023-05-07T20:27:13.727Z,17.50
2023-05-07T20:29:41.464Z,17.50
2023-05-07T20:32:09.304Z,17.50
2023-05-07T20:34:38.370Z,17.50
2023-05-07T20:37:06.087Z,17.50
2023-05-07T20:39:33.812Z,17.50
2023-05-07T20:42:01.581Z,17.50
2023-05-07T20:44:30.626Z,17.50
2023-05-07T20:46:58.283Z,17.50
2023-05-07T20:49:26.054Z,17.60
2023-05-07T20:51:55.062Z,17.60
2023-05-07T20:54:23.015Z,17.60
2023-05-07T20:56:51.051Z,17.60
2023-05-07T20:59:18.781Z,17.60
2023-05-07T21:01:46.575Z,17.60
2023-05-07T21:04:14.359Z,17.60
2023-05-07T21:06:42.614Z,17.60
2023-05-07T21:09:11.762Z,17.60
2023-05-07T21:11:39.562Z,17.60
2023-05-07T21:14:07.311Z,17.70
2023-05-07T21:16:35.086Z,17.60
2023-05-07T21:19:02.809Z,17.60
2023-05-07T21:21:31.175Z,17.60
2023-05-07T21:23:58.934Z,17.60
2023-05-07T21:26:28.019Z,17.60
2023-05-07T21:28:55.744Z,17.50
2023-05-07T21:31:23.529Z,17.50
2023-05-07T21:33:53.089Z,17.40
2023-05-07T21:36:21.226Z,17.40
2023-05-07T21:38:48.968Z,17.50
2023-05-07T21:41:17.002Z,17.50
2023-05-07T21:43:46.082Z,17.50
2023-05-07T21:46:13.898Z,17.50
2023-05-07T21:48:41.647Z,17.50
2023-05-07T21:51:09.431Z,17.50
2023-05-07T21:53:37.304Z,17.50
2023-05-07T21:56:05.434Z,17.40
2023-05-07T21:58:33.216Z,17.40
2023-05-07T22:01:02.652Z,17.30
2023-05-07T22:03:30.513Z,17.20
2023-05-07T22:05:58.329Z,17.30
2023-05-07T22:08:26.166Z,17.30
2023-05-07T22:10:53.902Z,17.30
2023-05-07T22:13:21.688Z,17.30
2023-05-07T22:15:57.549Z,17.30
2023-05-07T22:18:27.640Z,17.30
2023-05-07T22:20:55.401Z,17.30
2023-05-07T22:23:23.090Z,17.30
2023-05-07T22:25:50.843Z,17.30
2023-05-07T22:28:18.581Z,17.30
2023-05-07T22:30:46.377Z,17.30
2023-05-07T22:33:14.315Z,17.30
2023-05-07T22:35:43.445Z,17.30
2023-05-07T22:38:11.251Z,17.30
2023-05-07T22:40:38.960Z,17.20
2023-05-07T22:43:06.680Z,17.30
2023-05-07T22:45:34.413Z,17.20
2023-05-07T22:48:02.182Z,17.20
2023-05-07T22:50:29.979Z,17.20
2023-05-07T22:52:59.013Z,17.20
2023-05-07T22:55:27.216Z,17.20
2023-05-07T22:57:54.980Z,17.20
2023-05-07T23:00:22.867Z,17.20
2023-05-07T23:02:50.663Z,17.20
2023-05-07T23:05:18.392Z,17.20
2023-05-07T23:07:46.072Z,17.20
2023-05-07T23:10:15.182Z,17.20
2023-05-07T23:12:43.898Z,17.20
2023-05-07T23:15:12.310Z,17.20
2023-05-07T23:17:40.206Z,17.20
2023-05-07T23:20:08.857Z,17.20
2023-05-07T23:22:36.552Z,17.20
2023-05-07T23:25:04.518Z,17.20
2023-05-07T23:27:33.597Z,17.10
2023-05-07T23:30:01.340Z,17.10
2023-05-07T23:32:29.171Z,17.10
2023-05-07T23:34:56.941Z,17.10
2023-05-07T23:37:25.028Z,17.10
2023-05-07T23:39:55.657Z,17.20
2023-05-07T23:42:23.425Z,17.10
2023-05-07T23:44:52.518Z,17.10
2023-05-07T23:47:21.571Z,17.10
2023-05-07T23:49:49.468Z,17.10
2023-05-07T23:52:17.172Z,17.10
2023-05-07T23:54:45.073Z,17.20
2023-05-07T23:57:12.798Z,17.10
2023-05-07T23:59:40.640Z,17.10
